Trenton, Utah
Current Conditions -  °F | °C
As of 6:51 PM on Monday 22 Dec 2014 (Local Time) from KLGU Reporting Station
Overcast Overcast  
Wind Chill: 27°   Ceiling: 8500
Heat Index: 33°   Visibility: 10mi
Dew Point: 31°   Wind: 7mph
Humidity: 92%   Direction: 170°S
Pressure: 30.08"   Gusts: NA
Location:  41.92°N, 111.94°W
Report Text: KLGU 230151Z AUTO 17006KT 10SM OVC085 01/M01 A3008 RMK AO2 SNE04 SLP193 P0000 T00061006
Loading
Personal Weather Stations






























Interactive Weather Map New forecast layout! Learn more

10-Day Weather Forecast

Advertisements
Track Severe Weather on mobile